createdAt,value
2018-03-25T00:00:54.132Z,1000.67
2018-03-25T00:01:54.162Z,1000.68
2018-03-25T00:02:54.077Z,1000.65
2018-03-25T00:03:54.070Z,1000.62
2018-03-25T00:04:54.020Z,1000.62
2018-03-25T00:05:54.086Z,1000.59
2018-03-25T00:06:53.963Z,1000.59
2018-03-25T00:07:53.992Z,1000.58
2018-03-25T00:08:53.908Z,1000.58
2018-03-25T00:09:53.903Z,1000.65
2018-03-25T00:10:53.850Z,1000.64
2018-03-25T00:11:53.918Z,1000.61
2018-03-25T00:12:53.795Z,1000.66
2018-03-25T00:13:53.828Z,1000.64
2018-03-25T00:14:53.735Z,1000.61
2018-03-25T00:15:53.738Z,1000.63
2018-03-25T00:16:53.681Z,1000.67
2018-03-25T00:17:53.748Z,1000.61
2018-03-25T00:18:53.624Z,1000.63
2018-03-25T00:19:53.665Z,1000.70
2018-03-25T00:20:53.592Z,1000.63
2018-03-25T00:21:54.593Z,1000.65
2018-03-25T00:22:53.511Z,1000.64
2018-03-25T00:23:53.587Z,1000.63
2018-03-25T00:24:53.456Z,1000.65
2018-03-25T00:25:53.491Z,1000.61
2018-03-25T00:26:53.395Z,1000.68
2018-03-25T00:27:53.403Z,1000.65
2018-03-25T00:28:53.347Z,1000.64
2018-03-25T00:29:53.415Z,1000.64
2018-03-25T00:30:53.283Z,1000.66
2018-03-25T00:31:53.343Z,1000.66
2018-03-25T00:32:53.225Z,1000.68
2018-03-25T00:33:53.237Z,1000.67
2018-03-25T00:34:53.167Z,1000.69
2018-03-25T00:35:53.250Z,1000.70
2018-03-25T00:36:53.109Z,1000.67
2018-03-25T00:37:53.160Z,1000.67
2018-03-25T00:38:53.065Z,1000.68
2018-03-25T00:39:53.075Z,1000.71
2018-03-25T00:40:53.003Z,1000.69
2018-03-25T00:41:53.084Z,1000.67
2018-03-25T00:42:52.942Z,1000.69
2018-03-25T00:43:52.989Z,1000.70
2018-03-25T00:44:52.885Z,1000.70
2018-03-25T00:45:52.905Z,1000.71
2018-03-25T00:46:52.824Z,1000.71
2018-03-25T00:47:52.816Z,1000.71
2018-03-25T00:48:52.765Z,1000.73
2018-03-25T00:49:52.829Z,1000.72
2018-03-25T00:50:52.713Z,1000.74
2018-03-25T00:51:52.737Z,1000.71
2018-03-25T00:52:52.656Z,1000.67
2018-03-25T00:53:52.647Z,1000.72
2018-03-25T00:54:52.598Z,1000.73
2018-03-25T00:55:52.655Z,1000.72
2018-03-25T00:56:52.539Z,1000.71
2018-03-25T00:57:52.578Z,1000.70
2018-03-25T00:58:52.483Z,1000.70
2018-03-25T00:59:52.484Z,1000.68
2018-03-25T01:00:52.424Z,1000.67
2018-03-25T01:01:52.498Z,1000.65
2018-03-25T01:02:52.369Z,1000.66
2018-03-25T01:03:52.401Z,1000.65
2018-03-25T01:04:52.308Z,1000.67
2018-03-25T01:05:52.311Z,1000.65
2018-03-25T01:06:52.253Z,1000.61
2018-03-25T01:07:52.323Z,1000.66
2018-03-25T01:08:52.194Z,1000.66
2018-03-25T01:09:52.233Z,1000.64
2018-03-25T01:10:52.132Z,1000.70
2018-03-25T01:11:52.143Z,1000.71
2018-03-25T01:12:52.082Z,1000.66
2018-03-25T01:13:52.160Z,1000.69
2018-03-25T01:14:52.020Z,1000.70
2018-03-25T01:15:52.067Z,1000.72
2018-03-25T01:16:51.963Z,1000.74
2018-03-25T01:17:51.980Z,1000.68
2018-03-25T01:18:51.904Z,1000.68
2018-03-25T01:19:51.992Z,1000.72
2018-03-25T01:20:51.848Z,1000.70
2018-03-25T01:21:51.897Z,1000.71
2018-03-25T01:22:51.792Z,1000.72
2018-03-25T01:23:51.806Z,1000.74
2018-03-25T01:24:51.772Z,1000.73
2018-03-25T01:25:51.717Z,1000.72
2018-03-25T01:26:51.674Z,1000.73
2018-03-25T01:27:51.731Z,1000.73
2018-03-25T01:28:51.620Z,1000.78
2018-03-25T01:29:51.641Z,1000.78
2018-03-25T01:30:51.564Z,1000.75
2018-03-25T01:31:51.552Z,1000.74
2018-03-25T01:32:51.507Z,1000.73
2018-03-25T01:33:51.560Z,1000.71
2018-03-25T01:34:51.444Z,1000.74
2018-03-25T01:35:51.472Z,1000.72
2018-03-25T01:36:51.387Z,1000.71
2018-03-25T01:37:51.383Z,1000.71
2018-03-25T01:38:51.328Z,1000.70
2018-03-25T01:39:51.398Z,1000.71
2018-03-25T01:40:51.274Z,1000.68
2018-03-25T01:41:51.309Z,1000.72
2018-03-25T01:42:51.213Z,1000.73
2018-03-25T01:43:51.224Z,1000.71
2018-03-25T01:44:51.156Z,1000.69
2018-03-25T01:45:51.222Z,1000.68
2018-03-25T01:46:51.179Z,1000.72
2018-03-25T01:47:51.142Z,1000.71
2018-03-25T01:48:51.043Z,1000.72
2018-03-25T01:49:51.046Z,1000.74
2018-03-25T01:50:50.972Z,1000.73
2018-03-25T01:51:51.060Z,1000.77
2018-03-25T01:52:50.925Z,1000.74
2018-03-25T01:53:50.969Z,1000.75
2018-03-25T01:54:50.866Z,1000.73
2018-03-25T01:55:50.880Z,1000.77
2018-03-25T01:56:50.809Z,1000.77
2018-03-25T01:57:50.788Z,1000.77
2018-03-25T01:58:50.749Z,1000.79
2018-03-25T01:59:50.800Z,1000.82
2018-03-25T02:00:50.695Z,1000.80
2018-03-25T02:01:50.712Z,1000.80
2018-03-25T02:02:50.631Z,1000.83
2018-03-25T02:03:50.622Z,1000.83
2018-03-25T02:04:50.578Z,1000.86
2018-03-25T02:05:50.636Z,1000.87
2018-03-25T02:06:50.515Z,1000.90
2018-03-25T02:07:50.544Z,1000.86
2018-03-25T02:08:50.457Z,1000.85
2018-03-25T02:09:50.456Z,1000.84
2018-03-25T02:10:50.406Z,1000.87
2018-03-25T02:11:50.468Z,1000.88
2018-03-25T02:12:50.339Z,1000.87
2018-03-25T02:13:50.381Z,1000.95
2018-03-25T02:14:50.286Z,1000.93
2018-03-25T02:15:50.290Z,1000.95
2018-03-25T02:16:50.239Z,1000.94
2018-03-25T02:17:50.300Z,1000.94
2018-03-25T02:18:50.168Z,1000.92
2018-03-25T02:19:50.210Z,1000.95
2018-03-25T02:20:50.111Z,1000.94
2018-03-25T02:21:50.118Z,1000.95
2018-03-25T02:22:50.049Z,1000.92
2018-03-25T02:23:50.133Z,1000.96
2018-03-25T02:24:49.993Z,1000.97
2018-03-25T02:25:50.042Z,1001.02
2018-03-25T02:26:49.938Z,1000.96
2018-03-25T02:27:49.961Z,1000.99
2018-03-25T02:28:49.878Z,1000.96
2018-03-25T02:29:49.864Z,1000.94
2018-03-25T02:30:49.816Z,1000.97
2018-03-25T02:31:49.877Z,1000.92
2018-03-25T02:32:49.759Z,1000.93
2018-03-25T02:33:49.785Z,1000.96
2018-03-25T02:34:49.699Z,1000.91
2018-03-25T02:35:49.694Z,1000.97
2018-03-25T02:36:49.641Z,1000.92
2018-03-25T02:37:49.709Z,1000.94
2018-03-25T02:38:49.584Z,1000.95
2018-03-25T02:39:49.623Z,1000.95
2018-03-25T02:40:49.526Z,1000.95
2018-03-25T02:41:49.530Z,1000.99
2018-03-25T02:42:49.465Z,1000.97
2018-03-25T02:43:49.548Z,1001.00
2018-03-25T02:44:49.409Z,1001.00
2018-03-25T02:45:49.456Z,1001.01
2018-03-25T02:46:49.354Z,1001.04
2018-03-25T02:47:49.367Z,1001.07
2018-03-25T02:48:49.291Z,1001.05
2018-03-25T02:49:49.378Z,1001.04
2018-03-25T02:50:49.245Z,1001.05
2018-03-25T02:51:49.296Z,1001.08
2018-03-25T02:52:49.179Z,1001.06
2018-03-25T02:53:49.202Z,1001.06
2018-03-25T02:54:49.118Z,1001.07
2018-03-25T02:55:49.106Z,1001.10
2018-03-25T02:56:49.069Z,1001.12
2018-03-25T02:57:49.118Z,1001.09
2018-03-25T02:58:49.000Z,1001.12
2018-03-25T02:59:49.034Z,1001.12
2018-03-25T03:00:48.942Z,1001.13
2018-03-25T03:01:48.939Z,1001.14
2018-03-25T03:02:48.887Z,1001.10
2018-03-25T03:03:48.950Z,1001.14
2018-03-25T03:04:48.823Z,1001.14
2018-03-25T03:05:48.861Z,1001.15
2018-03-25T03:06:48.769Z,1001.13
2018-03-25T03:07:48.769Z,1001.17
2018-03-25T03:08:48.711Z,1001.14
2018-03-25T03:09:48.783Z,1001.16
2018-03-25T03:10:48.650Z,1001.17
2018-03-25T03:11:48.697Z,1001.15
2018-03-25T03:12:48.599Z,1001.17
2018-03-25T03:13:48.602Z,1001.18
2018-03-25T03:14:48.534Z,1001.21
2018-03-25T03:15:48.614Z,1001.18
2018-03-25T03:16:48.474Z,1001.15
2018-03-25T03:17:48.528Z,1001.16
2018-03-25T03:18:48.414Z,1001.20
2018-03-25T03:19:48.441Z,1001.20
2018-03-25T03:20:48.366Z,1001.20
2018-03-25T03:21:48.347Z,1001.20
2018-03-25T03:22:48.305Z,1001.18
2018-03-25T03:23:48.367Z,1001.25
2018-03-25T03:24:48.250Z,1001.25
2018-03-25T03:25:48.323Z,1001.26
2018-03-25T03:26:48.188Z,1001.30
2018-03-25T03:27:48.178Z,1001.31
2018-03-25T03:28:48.123Z,1001.31
2018-03-25T03:29:48.192Z,1001.31
2018-03-25T03:30:48.073Z,1001.33
2018-03-25T03:31:48.107Z,1001.32
2018-03-25T03:32:48.010Z,1001.32
2018-03-25T03:33:48.010Z,1001.35
2018-03-25T03:34:47.949Z,1001.37
2018-03-25T03:35:48.022Z,1001.38
2018-03-25T03:36:47.889Z,1001.39
2018-03-25T03:37:47.942Z,1001.40
2018-03-25T03:38:47.830Z,1001.43
2018-03-25T03:39:47.844Z,1001.40
2018-03-25T03:40:47.774Z,1001.43
2018-03-25T03:41:47.856Z,1001.41
2018-03-25T03:42:47.717Z,1001.42
2018-03-25T03:43:47.765Z,1001.41
2018-03-25T03:44:47.654Z,1001.41
2018-03-25T03:45:47.679Z,1001.40
2018-03-25T03:46:47.608Z,1001.42
2018-03-25T03:47:47.587Z,1001.42
2018-03-25T03:48:47.540Z,1001.40
2018-03-25T03:49:47.597Z,1001.42
2018-03-25T03:50:47.481Z,1001.45
2018-03-25T03:51:47.507Z,1001.40
2018-03-25T03:52:47.422Z,1001.43
2018-03-25T03:53:47.419Z,1001.41
2018-03-25T03:54:47.369Z,1001.43
2018-03-25T03:55:47.429Z,1001.41
2018-03-25T03:56:47.303Z,1001.48
2018-03-25T03:57:47.339Z,1001.50
2018-03-25T03:58:47.241Z,1001.48
2018-03-25T03:59:47.251Z,1001.48
2018-03-25T04:00:47.189Z,1001.50
2018-03-25T04:01:47.263Z,1001.49
2018-03-25T04:02:47.126Z,1001.49
2018-03-25T04:03:47.174Z,1001.52
2018-03-25T04:04:47.070Z,1001.52
2018-03-25T04:05:47.086Z,1001.54
2018-03-25T04:06:47.009Z,1001.50
2018-03-25T04:07:46.989Z,1001.54
2018-03-25T04:08:46.952Z,1001.54
2018-03-25T04:09:47.008Z,1001.55
2018-03-25T04:10:46.890Z,1001.56
2018-03-25T04:11:46.916Z,1001.57
2018-03-25T04:12:46.835Z,1001.59
2018-03-25T04:13:46.824Z,1001.55
2018-03-25T04:14:46.780Z,1001.58
2018-03-25T04:15:46.838Z,1001.59
2018-03-25T04:16:46.712Z,1001.60
2018-03-25T04:17:46.751Z,1001.60
2018-03-25T04:18:46.655Z,1001.63
2018-03-25T04:19:46.658Z,1001.60
2018-03-25T04:20:46.595Z,1001.60
2018-03-25T04:21:46.676Z,1001.57
2018-03-25T04:22:46.535Z,1001.57
2018-03-25T04:23:46.580Z,1001.60
2018-03-25T04:24:46.481Z,1001.59
2018-03-25T04:25:46.492Z,1001.61
2018-03-25T04:26:46.417Z,1001.62
2018-03-25T04:27:46.401Z,1001.63
2018-03-25T04:28:46.358Z,1001.60
2018-03-25T04:29:46.414Z,1001.61
2018-03-25T04:30:46.309Z,1001.62
2018-03-25T04:31:46.331Z,1001.62
2018-03-25T04:32:46.240Z,1001.63
2018-03-25T04:33:46.236Z,1001.64
2018-03-25T04:34:46.184Z,1001.64
2018-03-25T04:35:46.244Z,1001.64
2018-03-25T04:36:46.121Z,1001.63
2018-03-25T04:37:46.156Z,1001.63
2018-03-25T04:38:46.064Z,1001.64
2018-03-25T04:39:46.066Z,1001.67
2018-03-25T04:40:46.006Z,1001.66
2018-03-25T04:41:46.081Z,1001.67
2018-03-25T04:42:45.943Z,1001.70
2018-03-25T04:43:45.991Z,1001.66
2018-03-25T04:44:45.883Z,1001.66
2018-03-25T04:45:45.898Z,1001.70
2018-03-25T04:46:45.826Z,1001.73
2018-03-25T04:47:45.914Z,1001.70
2018-03-25T04:48:45.764Z,1001.69
2018-03-25T04:49:45.824Z,1001.70
2018-03-25T04:50:45.706Z,1001.70
2018-03-25T04:51:45.737Z,1001.73
2018-03-25T04:52:45.645Z,1001.68
2018-03-25T04:53:45.642Z,1001.72
2018-03-25T04:54:45.590Z,1001.72
2018-03-25T04:55:45.655Z,1001.72
2018-03-25T04:56:45.530Z,1001.74
2018-03-25T04:57:45.564Z,1001.80
2018-03-25T04:58:45.469Z,1001.80
2018-03-25T04:59:45.476Z,1001.80
2018-03-25T05:00:45.410Z,1001.84
2018-03-25T05:01:45.490Z,1001.84
2018-03-25T05:02:45.362Z,1001.84
2018-03-25T05:03:45.397Z,1001.83
2018-03-25T05:04:45.288Z,1001.85
2018-03-25T05:05:45.307Z,1001.84
2018-03-25T05:06:45.230Z,1001.82
2018-03-25T05:07:45.219Z,1001.80
2018-03-25T05:08:45.170Z,1001.84
2018-03-25T05:09:45.229Z,1001.82
2018-03-25T05:10:45.108Z,1001.83
2018-03-25T05:11:45.141Z,1001.83
2018-03-25T05:12:45.051Z,1001.87
2018-03-25T05:13:45.051Z,1001.88
2018-03-25T05:14:44.989Z,1001.89
2018-03-25T05:15:45.062Z,1001.89
2018-03-25T05:16:44.936Z,1001.88
2018-03-25T05:17:44.973Z,1001.84
2018-03-25T05:18:44.870Z,1001.89
2018-03-25T05:19:44.884Z,1001.89
2018-03-25T05:20:44.811Z,1001.88
2018-03-25T05:21:44.897Z,1001.93
2018-03-25T05:22:44.753Z,1001.88
2018-03-25T05:23:44.804Z,1001.89
2018-03-25T05:24:44.691Z,1001.93
2018-03-25T05:25:44.719Z,1001.89
2018-03-25T05:26:44.633Z,1001.93
2018-03-25T05:27:44.634Z,1001.92
2018-03-25T05:28:44.572Z,1001.92
2018-03-25T05:29:44.641Z,1001.99
2018-03-25T05:30:44.510Z,1001.93
2018-03-25T05:31:44.549Z,1001.94
2018-03-25T05:32:44.450Z,1002.01
2018-03-25T05:33:44.464Z,1001.96
2018-03-25T05:34:44.391Z,1001.97
2018-03-25T05:35:44.470Z,1002.01
2018-03-25T05:36:44.332Z,1001.97
2018-03-25T05:37:44.382Z,1002.04
2018-03-25T05:38:44.272Z,1002.01
2018-03-25T05:39:44.291Z,1001.98
2018-03-25T05:40:44.212Z,1002.04
2018-03-25T05:41:44.201Z,1002.08
2018-03-25T05:42:44.160Z,1002.03
2018-03-25T05:43:44.213Z,1002.04
2018-03-25T05:44:44.091Z,1002.07
2018-03-25T05:45:44.176Z,1002.09
2018-03-25T05:46:44.028Z,1002.06
2018-03-25T05:47:44.034Z,1002.12
2018-03-25T05:48:43.970Z,1002.12
2018-03-25T05:49:44.049Z,1002.12
2018-03-25T05:50:43.911Z,1002.16
2018-03-25T05:51:43.956Z,1002.17
2018-03-25T05:52:43.852Z,1002.19
2018-03-25T05:53:43.876Z,1002.22
2018-03-25T05:54:43.790Z,1002.21
2018-03-25T05:55:43.778Z,1002.25
2018-03-25T05:56:43.732Z,1002.22
2018-03-25T05:57:43.806Z,1002.21
2018-03-25T05:58:43.668Z,1002.22
2018-03-25T05:59:43.701Z,1002.26
2018-03-25T06:00:43.610Z,1002.26
2018-03-25T06:01:43.613Z,1002.29
2018-03-25T06:02:43.553Z,1002.26
2018-03-25T06:03:43.623Z,1002.28
2018-03-25T06:04:43.500Z,1002.30
2018-03-25T06:05:43.534Z,1002.27
2018-03-25T06:06:43.429Z,1002.31
2018-03-25T06:07:43.444Z,1002.32
2018-03-25T06:08:43.369Z,1002.35
2018-03-25T06:09:43.350Z,1002.42
2018-03-25T06:10:43.311Z,1002.38
2018-03-25T06:11:43.368Z,1002.42
2018-03-25T06:12:43.250Z,1002.40
2018-03-25T06:13:43.275Z,1002.47
2018-03-25T06:14:43.189Z,1002.47
2018-03-25T06:15:43.210Z,1002.46
2018-03-25T06:16:43.129Z,1002.50
2018-03-25T06:17:43.197Z,1002.47
2018-03-25T06:18:43.071Z,1002.51
2018-03-25T06:19:43.108Z,1002.51
2018-03-25T06:20:43.011Z,1002.53
2018-03-25T06:21:43.019Z,1002.52
2018-03-25T06:22:42.950Z,1002.56
2018-03-25T06:23:43.035Z,1002.56
2018-03-25T06:24:42.895Z,1002.57
2018-03-25T06:25:42.942Z,1002.55
2018-03-25T06:26:42.829Z,1002.58
2018-03-25T06:27:42.855Z,1002.63
2018-03-25T06:28:42.774Z,1002.63
2018-03-25T06:29:42.763Z,1002.64
2018-03-25T06:30:42.761Z,1002.65
2018-03-25T06:31:42.778Z,1002.66
2018-03-25T06:32:42.651Z,1002.65
2018-03-25T06:33:42.686Z,1002.68
2018-03-25T06:34:42.593Z,1002.70
2018-03-25T06:35:42.599Z,1002.69
2018-03-25T06:36:42.530Z,1002.70
2018-03-25T06:37:42.612Z,1002.75
2018-03-25T06:38:42.468Z,1002.75
2018-03-25T06:39:42.519Z,1002.80
2018-03-25T06:40:42.412Z,1002.77
2018-03-25T06:41:42.426Z,1002.80
2018-03-25T06:42:42.360Z,1002.78
2018-03-25T06:43:42.337Z,1002.81
2018-03-25T06:44:42.292Z,1002.81
2018-03-25T06:45:42.349Z,1002.81
2018-03-25T06:46:42.229Z,1002.82
2018-03-25T06:47:42.257Z,1002.85
2018-03-25T06:48:42.176Z,1002.87
2018-03-25T06:49:42.170Z,1002.89
2018-03-25T06:50:42.114Z,1002.90
2018-03-25T06:51:42.191Z,1002.89
2018-03-25T06:52:42.051Z,1002.94
2018-03-25T06:53:42.096Z,1002.98
2018-03-25T06:54:41.996Z,1002.94
2018-03-25T06:55:41.999Z,1002.97
2018-03-25T06:56:41.936Z,1002.99
2018-03-25T06:57:42.013Z,1003.03
2018-03-25T06:58:41.873Z,1003.07
2018-03-25T06:59:41.923Z,1003.08
2018-03-25T07:00:41.816Z,1003.07
2018-03-25T07:01:41.834Z,1003.10
2018-03-25T07:02:41.756Z,1003.12
2018-03-25T07:03:41.742Z,1003.16
2018-03-25T07:04:41.695Z,1003.16
2018-03-25T07:05:41.755Z,1003.22
2018-03-25T07:06:41.637Z,1003.19
2018-03-25T07:07:41.664Z,1003.26
2018-03-25T07:08:41.594Z,1003.22
2018-03-25T07:09:41.576Z,1003.28
2018-03-25T07:10:41.520Z,1003.23
2018-03-25T07:11:41.587Z,1003.27
2018-03-25T07:12:41.460Z,1003.27
2018-03-25T07:13:41.497Z,1003.32
2018-03-25T07:14:41.400Z,1003.33
2018-03-25T07:15:41.412Z,1003.36
2018-03-25T07:16:41.339Z,1003.38
2018-03-25T07:17:41.422Z,1003.42
2018-03-25T07:18:41.289Z,1003.42
2018-03-25T07:19:41.346Z,1003.44
2018-03-25T07:20:41.228Z,1003.49
2018-03-25T07:21:41.240Z,1003.53
2018-03-25T07:22:41.165Z,1003.54
2018-03-25T07:23:41.257Z,1003.53
2018-03-25T07:24:41.113Z,1003.56
2018-03-25T07:25:41.166Z,1003.62
2018-03-25T07:26:41.046Z,1003.62
2018-03-25T07:27:41.077Z,1003.60
2018-03-25T07:28:40.994Z,1003.61
2018-03-25T07:29:40.984Z,1003.57
2018-03-25T07:30:40.935Z,1003.64
2018-03-25T07:31:40.997Z,1003.60
2018-03-25T07:32:40.883Z,1003.63
2018-03-25T07:33:40.912Z,1003.63
2018-03-25T07:34:40.823Z,1003.68
2018-03-25T07:35:40.834Z,1003.65
2018-03-25T07:36:40.770Z,1003.62
2018-03-25T07:37:40.832Z,1003.66
2018-03-25T07:38:40.726Z,1003.66
2018-03-25T07:39:40.735Z,1003.64
2018-03-25T07:40:40.647Z,1003.67
2018-03-25T07:41:40.667Z,1003.65
2018-03-25T07:42:40.588Z,1003.66
2018-03-25T07:43:40.662Z,1003.67
2018-03-25T07:44:40.559Z,1003.70
2018-03-25T07:45:40.574Z,1003.69
2018-03-25T07:46:40.477Z,1003.70
2018-03-25T07:47:40.483Z,1003.73
2018-03-25T07:48:40.432Z,1003.73
2018-03-25T07:49:40.502Z,1003.73
2018-03-25T07:50:40.361Z,1003.74
2018-03-25T07:51:40.407Z,1003.76
2018-03-25T07:52:40.305Z,1003.74
2018-03-25T07:53:40.315Z,1003.77
2018-03-25T07:54:40.246Z,1003.78
2018-03-25T07:55:40.328Z,1003.80
2018-03-25T07:56:40.192Z,1003.81
2018-03-25T07:57:40.239Z,1003.79
2018-03-25T07:58:40.131Z,1003.82
2018-03-25T07:59:40.148Z,1003.81
2018-03-25T08:00:40.087Z,1003.82
2018-03-25T08:01:40.152Z,1003.85
2018-03-25T08:02:40.029Z,1003.86
2018-03-25T08:03:40.074Z,1003.86
2018-03-25T08:04:39.964Z,1003.87
2018-03-25T08:05:39.982Z,1003.87
2018-03-25T08:06:39.910Z,1003.88
2018-03-25T08:07:39.996Z,1003.87
2018-03-25T08:08:39.847Z,1003.93
2018-03-25T08:09:39.901Z,1003.94
2018-03-25T08:10:39.796Z,1003.94
2018-03-25T08:11:39.812Z,1003.92
2018-03-25T08:12:39.742Z,1003.89
2018-03-25T08:13:39.828Z,1003.95
2018-03-25T08:14:39.685Z,1003.95
2018-03-25T08:15:39.734Z,1003.95
2018-03-25T08:16:39.629Z,1003.97
2018-03-25T08:17:39.652Z,1003.97
2018-03-25T08:18:39.576Z,1004.00
2018-03-25T08:19:39.657Z,1003.99
2018-03-25T08:20:39.518Z,1004.01
2018-03-25T08:21:39.567Z,1003.96
2018-03-25T08:22:39.460Z,1004.02
2018-03-25T08:23:39.472Z,1004.02
2018-03-25T08:24:39.405Z,1004.04
2018-03-25T08:25:39.491Z,1004.00
2018-03-25T08:26:39.352Z,1004.04
2018-03-25T08:27:39.404Z,1004.05
2018-03-25T08:28:39.292Z,1004.06
2018-03-25T08:29:39.310Z,1004.05
2018-03-25T08:30:39.243Z,1004.05
2018-03-25T08:31:39.326Z,1004.04
2018-03-25T08:32:39.181Z,1004.08
2018-03-25T08:33:39.236Z,1004.08
2018-03-25T08:34:39.129Z,1004.07
2018-03-25T08:35:39.101Z,1004.06
2018-03-25T08:36:39.207Z,1004.08
2018-03-25T08:37:39.052Z,1004.12
2018-03-25T08:38:39.123Z,1004.10
2018-03-25T08:39:38.992Z,1004.08
2018-03-25T08:40:38.970Z,1004.12
2018-03-25T08:41:39.038Z,1004.12
2018-03-25T08:42:38.913Z,1004.11
2018-03-25T08:43:39.057Z,1004.13
2018-03-25T08:44:38.859Z,1004.18
2018-03-25T08:45:38.962Z,1004.15
2018-03-25T08:46:38.860Z,1004.15
2018-03-25T08:47:38.882Z,1004.14
2018-03-25T08:48:38.756Z,1004.17
2018-03-25T08:49:38.818Z,1004.18
2018-03-25T08:50:38.702Z,1004.20
2018-03-25T08:51:38.800Z,1004.23
2018-03-25T08:52:38.647Z,1004.23
2018-03-25T08:53:38.711Z,1004.26
2018-03-25T08:54:38.593Z,1004.22
2018-03-25T08:55:38.760Z,1004.26
2018-03-25T08:56:38.538Z,1004.27
2018-03-25T08:57:38.637Z,1004.27
2018-03-25T08:58:38.491Z,1004.29
2018-03-25T08:59:38.549Z,1004.28
2018-03-25T09:00:38.432Z,1004.22
2018-03-25T09:01:38.561Z,1004.23
2018-03-25T09:02:38.381Z,1004.30
2018-03-25T09:03:38.471Z,1004.30
2018-03-25T09:04:38.329Z,1004.27
2018-03-25T09:05:38.549Z,1004.31
2018-03-25T09:06:38.276Z,1004.30
2018-03-25T09:07:38.408Z,1004.29
2018-03-25T09:08:38.227Z,1004.36
2018-03-25T09:09:38.311Z,1004.33
2018-03-25T09:10:38.169Z,1004.32
2018-03-25T09:11:38.324Z,1004.33
2018-03-25T09:12:38.121Z,1004.33
2018-03-25T09:13:38.235Z,1004.32
2018-03-25T09:14:38.070Z,1004.32
2018-03-25T09:15:38.159Z,1004.35
2018-03-25T09:16:38.017Z,1004.38
2018-03-25T09:17:38.160Z,1004.42
2018-03-25T09:18:37.966Z,1004.32
2018-03-25T09:19:38.072Z,1004.33
2018-03-25T09:20:37.916Z,1004.34
2018-03-25T09:21:38.088Z,1004.35
2018-03-25T09:22:37.874Z,1004.36
2018-03-25T09:23:37.999Z,1004.39
2018-03-25T09:24:37.813Z,1004.43
2018-03-25T09:25:37.915Z,1004.43
2018-03-25T09:26:37.762Z,1004.46
2018-03-25T09:27:37.950Z,1004.56
2018-03-25T09:28:37.717Z,1004.71
2018-03-25T09:29:37.837Z,1004.77
2018-03-25T09:30:37.664Z,1004.82
2018-03-25T09:31:37.850Z,1004.82
2018-03-25T09:32:37.615Z,1004.82
2018-03-25T09:33:37.760Z,1004.91
2018-03-25T09:34:37.570Z,1004.87
2018-03-25T09:35:37.674Z,1004.91
2018-03-25T09:36:37.520Z,1004.89
2018-03-25T09:37:37.585Z,1004.92
2018-03-25T09:38:37.473Z,1004.92
2018-03-25T09:39:37.496Z,1004.92
2018-03-25T09:40:37.424Z,1004.97
2018-03-25T09:41:37.509Z,1005.02
2018-03-25T09:42:37.377Z,1005.03
2018-03-25T09:43:37.420Z,1005.01
2018-03-25T09:44:37.340Z,1005.00
2018-03-25T09:45:37.333Z,1005.03
2018-03-25T09:46:37.283Z,1005.02
2018-03-25T09:47:37.348Z,1005.01
2018-03-25T09:48:37.250Z,1005.02
2018-03-25T09:49:37.258Z,1004.95
2018-03-25T09:50:37.197Z,1004.98
2018-03-25T09:51:37.272Z,1004.99
2018-03-25T09:52:37.160Z,1005.02
2018-03-25T09:53:37.185Z,1004.96
2018-03-25T09:54:37.109Z,1004.97
2018-03-25T09:55:37.197Z,1004.98
2018-03-25T09:56:37.068Z,1004.94
2018-03-25T09:57:37.109Z,1004.99
2018-03-25T09:58:37.080Z,1004.99
2018-03-25T09:59:37.021Z,1004.98
2018-03-25T10:00:36.983Z,1004.96
2018-03-25T10:01:37.035Z,1004.98
2018-03-25T10:02:36.939Z,1004.99
2018-03-25T10:03:36.949Z,1004.98
2018-03-25T10:04:36.939Z,1005.01
2018-03-25T10:05:36.961Z,1004.98
2018-03-25T10:06:36.859Z,1004.97
2018-03-25T10:07:36.882Z,1005.04
2018-03-25T10:08:36.827Z,1005.09
2018-03-25T10:09:36.876Z,1005.23
2018-03-25T10:10:36.780Z,1005.47
2018-03-25T10:11:36.799Z,1005.76
2018-03-25T10:12:36.743Z,1006.12
2018-03-25T10:13:36.816Z,1006.23
2018-03-25T10:14:36.701Z,1006.11
2018-03-25T10:15:36.728Z,1006.09
2018-03-25T10:16:36.664Z,1006.10
2018-03-25T10:17:36.736Z,1006.10
2018-03-25T10:18:36.631Z,1005.99
2018-03-25T10:19:36.656Z,1005.88
2018-03-25T10:20:36.590Z,1005.83
2018-03-25T10:21:36.662Z,1005.73
2018-03-25T10:22:36.556Z,1005.75
2018-03-25T10:23:36.578Z,1005.81
2018-03-25T10:24:36.509Z,1005.79
2018-03-25T10:25:36.595Z,1005.76
2018-03-25T10:26:36.478Z,1005.77
2018-03-25T10:27:36.500Z,1005.68
2018-03-25T10:28:36.444Z,1005.64
2018-03-25T10:29:36.522Z,1005.63
2018-03-25T10:30:36.403Z,1005.62
2018-03-25T10:31:36.394Z,1005.65
2018-03-25T10:32:36.435Z,1005.52
2018-03-25T10:33:36.349Z,1005.49
2018-03-25T10:34:36.446Z,1005.49
2018-03-25T10:35:36.315Z,1005.37
2018-03-25T10:36:36.298Z,1005.35
2018-03-25T10:37:36.378Z,1005.33
2018-03-25T10:38:36.259Z,1005.40
2018-03-25T10:39:36.397Z,1005.54
2018-03-25T10:40:36.228Z,1005.50
2018-03-25T10:41:36.294Z,1005.62
2018-03-25T10:42:36.187Z,1005.66
2018-03-25T10:43:36.308Z,1005.63
2018-03-25T10:44:36.158Z,1005.55
2018-03-25T10:45:36.229Z,1005.51
2018-03-25T10:46:36.125Z,1005.48
2018-03-25T10:47:36.233Z,1005.39
2018-03-25T10:48:36.088Z,1005.29
2018-03-25T10:49:36.171Z,1005.24
2018-03-25T10:50:36.054Z,1005.19
2018-03-25T10:51:36.157Z,1005.20
2018-03-25T10:52:36.029Z,1005.14
2018-03-25T10:53:36.183Z,1005.15
2018-03-25T10:54:35.991Z,1005.10
2018-03-25T10:55:36.080Z,1005.09
2018-03-25T10:56:35.952Z,1005.14
2018-03-25T10:57:36.096Z,1005.11
2018-03-25T10:58:35.909Z,1005.13
2018-03-25T10:59:36.020Z,1005.14
2018-03-25T11:00:35.904Z,1005.11
2018-03-25T11:01:36.020Z,1005.14
2018-03-25T11:02:35.849Z,1005.18
2018-03-25T11:03:35.929Z,1005.12
2018-03-25T11:04:35.818Z,1005.14
2018-03-25T11:05:35.946Z,1005.13
2018-03-25T11:06:35.791Z,1005.16
2018-03-25T11:07:35.859Z,1005.15
2018-03-25T11:08:35.752Z,1005.15
2018-03-25T11:09:35.885Z,1005.10
2018-03-25T11:10:35.718Z,1005.12
2018-03-25T11:11:35.886Z,1005.13
2018-03-25T11:12:35.689Z,1005.13
2018-03-25T11:13:35.690Z,1005.15
2018-03-25T11:14:35.673Z,1005.15
2018-03-25T11:15:35.740Z,1005.16
2018-03-25T11:16:35.624Z,1005.17
2018-03-25T11:17:35.650Z,1005.17
2018-03-25T11:18:35.655Z,1005.19
2018-03-25T11:19:35.574Z,1005.21
2018-03-25T11:20:35.665Z,1005.18
2018-03-25T11:21:35.545Z,1005.17
2018-03-25T11:22:36.603Z,1005.23
2018-03-25T11:23:35.514Z,1005.27
2018-03-25T11:24:35.601Z,1005.27
2018-03-25T11:25:35.485Z,1005.23
2018-03-25T11:26:35.500Z,1005.24
2018-03-25T11:27:35.456Z,1005.23
2018-03-25T11:28:35.512Z,1005.27
2018-03-25T11:29:35.434Z,1005.26
2018-03-25T11:30:35.425Z,1005.26
2018-03-25T11:31:35.393Z,1005.19
2018-03-25T11:32:35.435Z,1005.22
2018-03-25T11:33:35.372Z,1005.25
2018-03-25T11:34:35.449Z,1005.16
2018-03-25T11:35:35.334Z,1005.20
2018-03-25T11:36:35.358Z,1005.20
2018-03-25T11:37:35.303Z,1005.23
2018-03-25T11:38:35.374Z,1005.23
2018-03-25T11:39:35.274Z,1005.22
2018-03-25T11:40:35.283Z,1005.23
2018-03-25T11:41:35.252Z,1005.24
2018-03-25T11:42:35.300Z,1005.18
2018-03-25T11:43:35.215Z,1005.17
2018-03-25T11:44:35.320Z,1005.20
2018-03-25T11:45:35.188Z,1005.22
2018-03-25T11:46:35.217Z,1005.22
2018-03-25T11:47:35.205Z,1005.20
2018-03-25T11:48:35.326Z,1005.23
2018-03-25T11:49:35.126Z,1005.22
2018-03-25T11:50:35.109Z,1005.23
2018-03-25T11:51:35.094Z,1005.22
2018-03-25T11:52:35.254Z,1005.21
2018-03-25T11:53:35.064Z,1005.22
2018-03-25T11:54:35.270Z,1005.23
2018-03-25T11:55:35.047Z,1005.23
2018-03-25T11:56:35.074Z,1005.29
2018-03-25T11:57:35.016Z,1005.27
2018-03-25T11:58:35.191Z,1005.26
2018-03-25T11:59:34.980Z,1005.27
2018-03-25T12:00:35.104Z,1005.28
2018-03-25T12:01:34.950Z,1005.22
2018-03-25T12:02:35.107Z,1005.26
2018-03-25T12:03:34.918Z,1005.30
2018-03-25T12:04:34.928Z,1005.34
2018-03-25T12:05:34.892Z,1005.27